sensor_id;sensor_type;location;lat;lon;timestamp;pressure;altitude;pressure_sealevel;temperature;humidity
55468;BME280;41332;42.702;23.200;2023-07-31T00:01:43;93686.09;;;19.82;77.44
55468;BME280;41332;42.702;23.200;2023-07-31T00:04:09;93684.94;;;19.87;78.41
55468;BME280;41332;42.702;23.200;2023-07-31T00:06:34;93682.66;;;19.82;79.19
55468;BME280;41332;42.702;23.200;2023-07-31T00:09:00;93677.75;;;19.66;80.03
55468;BME280;41332;42.702;23.200;2023-07-31T00:11:25;93680.41;;;19.66;80.58
55468;BME280;41332;42.702;23.200;2023-07-31T00:13:53;93675.13;;;19.58;81.56
55468;BME280;41332;42.702;23.200;2023-07-31T00:16:18;93667.53;;;19.53;82.38
55468;BME280;41332;42.702;23.200;2023-07-31T00:18:44;93667.56;;;19.42;82.14
55468;BME280;41332;42.702;23.200;2023-07-31T00:21:09;93656.63;;;19.19;84.19
55468;BME280;41332;42.702;23.200;2023-07-31T00:23:34;93651.31;;;19.15;83.97
55468;BME280;41332;42.702;23.200;2023-07-31T00:26:00;93650.56;;;19.15;84.45
55468;BME280;41332;42.702;23.200;2023-07-31T00:28:25;93644.91;;;18.98;85.40
55468;BME280;41332;42.702;23.200;2023-07-31T00:30:51;93640.34;;;18.99;85.00
55468;BME280;41332;42.702;23.200;2023-07-31T00:33:17;93624.78;;;18.79;87.01
55468;BME280;41332;42.702;23.200;2023-07-31T00:35:42;93622.88;;;18.76;87.09
55468;BME280;41332;42.702;23.200;2023-07-31T00:38:07;93619.09;;;18.73;86.85
55468;BME280;41332;42.702;23.200;2023-07-31T00:40:36;93622.13;;;18.72;87.57
55468;BME280;41332;42.702;23.200;2023-07-31T00:43:02;93616.06;;;18.64;87.62
55468;BME280;41332;42.702;23.200;2023-07-31T00:45:28;93621.00;;;18.58;87.26
55468;BME280;41332;42.702;23.200;2023-07-31T00:47:54;93626.34;;;18.55;87.49
55468;BME280;41332;42.702;23.200;2023-07-31T00:50:19;93630.91;;;18.47;88.39
55468;BME280;41332;42.702;23.200;2023-07-31T00:52:45;93622.91;;;18.54;88.51
55468;BME280;41332;42.702;23.200;2023-07-31T00:55:10;93624.47;;;18.48;88.86
55468;BME280;41332;42.702;23.200;2023-07-31T00:57:37;93615.69;;;18.48;88.26
55468;BME280;41332;42.702;23.200;2023-07-31T01:00:04;93617.59;;;18.58;88.41
55468;BME280;41332;42.702;23.200;2023-07-31T01:02:30;93616.09;;;18.50;88.34
55468;BME280;41332;42.702;23.200;2023-07-31T01:04:55;93619.50;;;18.47;88.21
55468;BME280;41332;42.702;23.200;2023-07-31T01:07:29;93621.38;;;18.53;88.04
55468;BME280;41332;42.702;23.200;2023-07-31T01:10:21;93623.69;;;18.51;88.80
55468;BME280;41332;42.702;23.200;2023-07-31T01:12:50;93612.28;;;18.58;88.65
55468;BME280;41332;42.702;23.200;2023-07-31T01:15:16;93612.66;;;18.49;88.55
55468;BME280;41332;42.702;23.200;2023-07-31T01:17:43;93616.47;;;18.44;89.61
55468;BME280;41332;42.702;23.200;2023-07-31T01:20:12;93612.28;;;18.36;89.41
55468;BME280;41332;42.702;23.200;2023-07-31T01:22:58;93618.38;;;18.40;89.36
55468;BME280;41332;42.702;23.200;2023-07-31T01:26:02;93611.91;;;18.45;90.60
55468;BME280;41332;42.702;23.200;2023-07-31T01:31:22;93608.09;;;18.39;90.19
55468;BME280;41332;42.702;23.200;2023-07-31T01:33:49;93607.75;;;18.40;90.42
55468;BME280;41332;42.702;23.200;2023-07-31T01:36:15;93611.53;;;18.47;90.55
55468;BME280;41332;42.702;23.200;2023-07-31T01:38:41;93608.50;;;18.44;90.34
55468;BME280;41332;42.702;23.200;2023-07-31T01:41:06;93612.69;;;18.38;91.51
55468;BME280;41332;42.702;23.200;2023-07-31T01:43:31;93616.09;;;18.32;91.93
55468;BME280;41332;42.702;23.200;2023-07-31T01:45:57;93603.19;;;18.34;92.65
55468;BME280;41332;42.702;23.200;2023-07-31T01:48:22;93610.03;;;18.42;92.41
55468;BME280;41332;42.702;23.200;2023-07-31T01:50:47;93603.56;;;18.36;93.47
55468;BME280;41332;42.702;23.200;2023-07-31T01:53:13;93612.69;;;18.42;92.91
55468;BME280;41332;42.702;23.200;2023-07-31T01:55:38;93619.13;;;18.48;92.76
55468;BME280;41332;42.702;23.200;2023-07-31T01:58:04;93619.50;;;18.54;92.07
55468;BME280;41332;42.702;23.200;2023-07-31T02:00:32;93604.69;;;18.53;92.07
55468;BME280;41332;42.702;23.200;2023-07-31T02:02:59;93610.78;;;18.50;91.90
55468;BME280;41332;42.702;23.200;2023-07-31T02:05:25;93611.53;;;18.57;92.43
55468;BME280;41332;42.702;23.200;2023-07-31T02:07:50;93621.38;;;18.68;92.05
55468;BME280;41332;42.702;23.200;2023-07-31T02:10:16;93617.59;;;18.65;91.36
55468;BME280;41332;42.702;23.200;2023-07-31T02:12:41;93616.44;;;18.70;92.09
55468;BME280;41332;42.702;23.200;2023-07-31T02:15:07;93609.22;;;18.67;92.54
55468;BME280;41332;42.702;23.200;2023-07-31T02:17:32;93625.94;;;18.71;91.26
55468;BME280;41332;42.702;23.200;2023-07-31T02:19:57;93617.56;;;18.69;91.57
55468;BME280;41332;42.702;23.200;2023-07-31T02:22:23;93613.03;;;18.73;91.14
55468;BME280;41332;42.702;23.200;2023-07-31T02:24:48;93620.59;;;18.78;90.32
55468;BME280;41332;42.702;23.200;2023-07-31T02:27:13;93614.50;;;18.88;90.61
55468;BME280;41332;42.702;23.200;2023-07-31T02:29:39;93616.78;;;18.86;90.48
55468;BME280;41332;42.702;23.200;2023-07-31T02:32:04;93613.38;;;18.89;89.95
55468;BME280;41332;42.702;23.200;2023-07-31T02:34:30;93601.22;;;18.81;89.70
55468;BME280;41332;42.702;23.200;2023-07-31T02:36:55;93618.69;;;18.82;89.70
55468;BME280;41332;42.702;23.200;2023-07-31T02:39:21;93608.81;;;18.86;90.08
55468;BME280;41332;42.702;23.200;2023-07-31T02:41:46;93611.84;;;18.81;89.65
55468;BME280;41332;42.702;23.200;2023-07-31T02:44:12;93628.56;;;18.82;89.92
55468;BME280;41332;42.702;23.200;2023-07-31T02:46:39;93620.22;;;18.80;90.02
55468;BME280;41332;42.702;23.200;2023-07-31T02:49:08;93630.88;;;18.76;90.55
55468;BME280;41332;42.702;23.200;2023-07-31T02:51:33;93617.22;;;18.67;90.66
55468;BME280;41332;42.702;23.200;2023-07-31T02:53:59;93625.94;;;18.71;90.18
55468;BME280;41332;42.702;23.200;2023-07-31T02:56:24;93621.78;;;18.59;91.45
55468;BME280;41332;42.702;23.200;2023-07-31T02:58:49;93624.78;;;18.65;91.22
55468;BME280;41332;42.702;23.200;2023-07-31T03:01:15;93633.16;;;18.70;90.99
55468;BME280;41332;42.702;23.200;2023-07-31T03:03:41;93641.88;;;18.67;90.87
55468;BME280;41332;42.702;23.200;2023-07-31T03:06:07;93638.09;;;18.72;90.73
55468;BME280;41332;42.702;23.200;2023-07-31T03:08:32;93638.47;;;18.70;90.63
55468;BME280;41332;42.702;23.200;2023-07-31T03:10:57;93646.06;;;18.75;91.02
55468;BME280;41332;42.702;23.200;2023-07-31T03:13:23;93651.75;;;18.81;90.64
55468;BME280;41332;42.702;23.200;2023-07-31T03:15:48;93645.69;;;18.77;90.15
55468;BME280;41332;42.702;23.200;2023-07-31T03:18:13;93646.44;;;18.85;90.34
55468;BME280;41332;42.702;23.200;2023-07-31T03:20:42;93647.56;;;18.87;89.82
55468;BME280;41332;42.702;23.200;2023-07-31T03:23:08;93647.19;;;18.85;90.05
55468;BME280;41332;42.702;23.200;2023-07-31T03:25:34;93656.31;;;18.95;89.09
55468;BME280;41332;42.702;23.200;2023-07-31T03:27:59;93662.41;;;18.96;89.23
55468;BME280;41332;42.702;23.200;2023-07-31T03:30:24;93645.66;;;18.84;88.17
55468;BME280;41332;42.702;23.200;2023-07-31T03:32:50;93660.88;;;18.84;89.14
55468;BME280;41332;42.702;23.200;2023-07-31T03:35:15;93664.69;;;18.93;89.44
55468;BME280;41332;42.702;23.200;2023-07-31T03:37:41;93667.34;;;18.93;88.72
55468;BME280;41332;42.702;23.200;2023-07-31T03:40:06;93665.06;;;18.88;88.38
55468;BME280;41332;42.702;23.200;2023-07-31T03:42:32;93675.34;;;18.90;88.57
55468;BME280;41332;42.702;23.200;2023-07-31T03:44:57;93671.16;;;18.92;88.48
55468;BME280;41332;42.702;23.200;2023-07-31T03:47:23;93674.19;;;18.87;89.48
55468;BME280;41332;42.702;23.200;2023-07-31T03:49:48;93681.03;;;18.88;88.71
55468;BME280;41332;42.702;23.200;2023-07-31T03:52:13;93676.88;;;18.91;87.78
55468;BME280;41332;42.702;23.200;2023-07-31T03:54:39;93678.38;;;18.88;87.75
55468;BME280;41332;42.702;23.200;2023-07-31T03:57:04;93679.53;;;18.91;87.81
55468;BME280;41332;42.702;23.200;2023-07-31T03:59:30;93677.22;;;19.04;88.07
55468;BME280;41332;42.702;23.200;2023-07-31T04:01:55;93676.44;;;19.03;88.04
55468;BME280;41332;42.702;23.200;2023-07-31T04:04:20;93681.38;;;19.05;88.09
55468;BME280;41332;42.702;23.200;2023-07-31T04:06:46;93684.81;;;19.09;88.21
55468;BME280;41332;42.702;23.200;2023-07-31T04:09:11;93690.50;;;19.18;88.34
55468;BME280;41332;42.702;23.200;2023-07-31T04:11:37;93679.84;;;19.11;88.58
55468;BME280;41332;42.702;23.200;2023-07-31T04:14:02;93687.44;;;19.20;87.97
55468;BME280;41332;42.702;23.200;2023-07-31T04:16:27;93679.84;;;19.11;86.95
55468;BME280;41332;42.702;23.200;2023-07-31T04:18:53;93688.97;;;19.14;86.65
55468;BME280;41332;42.702;23.200;2023-07-31T04:21:18;93698.88;;;19.13;85.95
55468;BME280;41332;42.702;23.200;2023-07-31T04:23:43;93699.25;;;19.12;85.90
55468;BME280;41332;42.702;23.200;2023-07-31T04:26:09;93696.56;;;19.15;85.92
55468;BME280;41332;42.702;23.200;2023-07-31T04:28:34;93700.75;;;19.20;86.10
55468;BME280;41332;42.702;23.200;2023-07-31T04:30:59;93689.75;;;19.14;86.32
55468;BME280;41332;42.702;23.200;2023-07-31T04:33:25;93692.03;;;19.12;86.42
55468;BME280;41332;42.702;23.200;2023-07-31T04:35:54;93694.66;;;19.19;86.25
55468;BME280;41332;42.702;23.200;2023-07-31T04:38:20;93694.25;;;19.35;86.35
55468;BME280;41332;42.702;23.200;2023-07-31T04:40:46;93693.06;;;19.43;86.06
55468;BME280;41332;42.702;23.200;2023-07-31T04:43:12;93691.91;;;19.52;85.28
55468;BME280;41332;42.702;23.200;2023-07-31T04:45:37;93688.06;;;19.56;83.97
55468;BME280;41332;42.702;23.200;2023-07-31T04:48:03;93684.25;;;19.61;84.33
55468;BME280;41332;42.702;23.200;2023-07-31T04:50:28;93683.13;;;19.62;83.81
55468;BME280;41332;42.702;23.200;2023-07-31T04:52:55;93688.00;;;19.74;82.97
55468;BME280;41332;42.702;23.200;2023-07-31T04:55:21;93681.50;;;19.86;82.48
55468;BME280;41332;42.702;23.200;2023-07-31T04:57:46;93687.53;;;19.94;82.45
55468;BME280;41332;42.702;23.200;2023-07-31T05:00:12;93675.00;;;19.95;81.92
55468;BME280;41332;42.702;23.200;2023-07-31T05:02:37;93674.19;;;20.01;81.36
55468;BME280;41332;42.702;23.200;2023-07-31T05:05:02;93681.75;;;20.10;79.93
55468;BME280;41332;42.702;23.200;2023-07-31T05:07:28;93682.50;;;20.07;79.39
55468;BME280;41332;42.702;23.200;2023-07-31T05:09:53;93684.41;;;20.10;79.86
55468;BME280;41332;42.702;23.200;2023-07-31T05:12:19;93689.78;;;20.03;79.77
55468;BME280;41332;42.702;23.200;2023-07-31T05:14:44;93681.78;;;20.03;79.48
55468;BME280;41332;42.702;23.200;2023-07-31T05:17:09;93688.09;;;20.31;78.53
55468;BME280;41332;42.702;23.200;2023-07-31T05:19:35;93690.38;;;20.32;78.37
55468;BME280;41332;42.702;23.200;2023-07-31T05:22:00;93685.25;;;20.52;77.46
55468;BME280;41332;42.702;23.200;2023-07-31T05:24:25;93688.22;;;20.62;77.02
55468;BME280;41332;42.702;23.200;2023-07-31T05:26:51;93684.50;;;20.52;75.34
55468;BME280;41332;42.702;23.200;2023-07-31T05:29:16;93691.84;;;20.37;75.76
55468;BME280;41332;42.702;23.200;2023-07-31T05:31:41;93696.50;;;20.25;76.62
55468;BME280;41332;42.702;23.200;2023-07-31T05:34:07;93693.53;;;20.13;75.11
55468;BME280;41332;42.702;23.200;2023-07-31T05:36:32;93685.13;;;20.18;75.85
55468;BME280;41332;42.702;23.200;2023-07-31T05:38:57;93680.25;;;20.02;74.64
55468;BME280;41332;42.702;23.200;2023-07-31T05:41:23;93687.81;;;20.18;74.50
55468;BME280;41332;42.702;23.200;2023-07-31T05:43:48;93686.63;;;20.19;73.67
55468;BME280;41332;42.702;23.200;2023-07-31T05:46:14;93683.22;;;20.18;73.93
55468;BME280;41332;42.702;23.200;2023-07-31T05:48:39;93682.81;;;20.23;72.68
55468;BME280;41332;42.702;23.200;2023-07-31T05:51:04;93682.75;;;20.31;72.47
55468;BME280;41332;42.702;23.200;2023-07-31T05:53:30;93681.84;;;20.48;72.10
55468;BME280;41332;42.702;23.200;2023-07-31T05:55:55;93695.44;;;20.68;72.10
55468;BME280;41332;42.702;23.200;2023-07-31T05:58:21;93695.66;;;20.88;68.96
55468;BME280;41332;42.702;23.200;2023-07-31T06:00:46;93707.25;;;21.13;68.87
55468;BME280;41332;42.702;23.200;2023-07-31T06:03:12;93704.03;;;21.29;68.36
55468;BME280;41332;42.702;23.200;2023-07-31T06:05:40;93707.50;;;21.26;67.47
55468;BME280;41332;42.702;23.200;2023-07-31T06:08:05;93701.50;;;21.14;66.76
55468;BME280;41332;42.702;23.200;2023-07-31T06:10:31;93709.19;;;21.12;67.22
55468;BME280;41332;42.702;23.200;2023-07-31T06:12:56;93714.16;;;21.10;67.91
55468;BME280;41332;42.702;23.200;2023-07-31T06:15:22;93718.00;;;21.05;67.70
55468;BME280;41332;42.702;23.200;2023-07-31T06:17:47;93725.66;;;21.03;67.80
55468;BME280;41332;42.702;23.200;2023-07-31T06:20:13;93721.03;;;21.07;68.17
55468;BME280;41332;42.702;23.200;2023-07-31T06:22:38;93707.69;;;21.07;67.42
55468;BME280;41332;42.702;23.200;2023-07-31T06:25:04;93720.66;;;21.05;67.74
55468;BME280;41332;42.702;23.200;2023-07-31T06:27:29;93716.19;;;20.95;67.31
55468;BME280;41332;42.702;23.200;2023-07-31T06:29:55;93728.47;;;20.85;67.57
55468;BME280;41332;42.702;23.200;2023-07-31T06:32:20;93724.97;;;20.96;67.56
55468;BME280;41332;42.702;23.200;2023-07-31T06:34:46;93725.28;;;21.01;67.72
55468;BME280;41332;42.702;23.200;2023-07-31T06:37:11;93724.44;;;21.12;67.58
55468;BME280;41332;42.702;23.200;2023-07-31T06:39:36;93720.63;;;21.09;67.82
55468;BME280;41332;42.702;23.200;2023-07-31T06:42:02;93737.31;;;21.20;67.42
55468;BME280;41332;42.702;23.200;2023-07-31T06:44:28;93725.47;;;21.21;67.21
55468;BME280;41332;42.702;23.200;2023-07-31T06:46:54;93726.91;;;21.30;67.52
55468;BME280;41332;42.702;23.200;2023-07-31T06:49:20;93731.03;;;21.38;67.06
55468;BME280;41332;42.702;23.200;2023-07-31T06:51:45;93735.59;;;21.41;64.96
55468;BME280;41332;42.702;23.200;2023-07-31T06:54:10;93731.34;;;21.47;65.52
55468;BME280;41332;42.702;23.200;2023-07-31T06:56:36;93728.25;;;21.49;64.76
55468;BME280;41332;42.702;23.200;2023-07-31T06:59:02;93725.94;;;21.51;64.18
55468;BME280;41332;42.702;23.200;2023-07-31T07:01:28;93721.69;;;21.53;63.74
55468;BME280;41332;42.702;23.200;2023-07-31T07:03:53;93725.88;;;21.58;64.39
55468;BME280;41332;42.702;23.200;2023-07-31T07:06:19;93725.63;;;21.80;64.01
55468;BME280;41332;42.702;23.200;2023-07-31T07:08:45;93715.50;;;21.95;62.18
55468;BME280;41332;42.702;23.200;2023-07-31T07:11:10;93720.88;;;22.22;64.42
55468;BME280;41332;42.702;23.200;2023-07-31T07:13:36;93706.22;;;22.34;62.44
55468;BME280;41332;42.702;23.200;2023-07-31T07:16:01;93702.25;;;22.46;63.39
55468;BME280;41332;42.702;23.200;2023-07-31T07:18:27;93706.59;;;22.60;61.48
55468;BME280;41332;42.702;23.200;2023-07-31T07:20:53;93698.19;;;22.61;60.50
55468;BME280;41332;42.702;23.200;2023-07-31T07:23:20;93708.34;;;22.70;59.63
55468;BME280;41332;42.702;23.200;2023-07-31T07:25:46;93699.47;;;22.77;59.39
55468;BME280;41332;42.702;23.200;2023-07-31T07:28:12;93703.22;;;23.03;59.57
55468;BME280;41332;42.702;23.200;2023-07-31T07:30:37;93696.63;;;23.31;58.34
55468;BME280;41332;42.702;23.200;2023-07-31T07:33:03;93690.03;;;23.36;58.11
55468;BME280;41332;42.702;23.200;2023-07-31T07:35:28;93697.81;;;23.50;56.10
55468;BME280;41332;42.702;23.200;2023-07-31T07:37:54;93703.38;;;23.60;57.34
55468;BME280;41332;42.702;23.200;2023-07-31T07:40:20;93707.63;;;23.77;59.01
55468;BME280;41332;42.702;23.200;2023-07-31T07:42:46;93712.72;;;23.72;56.81
55468;BME280;41332;42.702;23.200;2023-07-31T07:45:12;93711.13;;;23.74;56.59
55468;BME280;41332;42.702;23.200;2023-07-31T07:47:38;93701.78;;;23.82;56.62
55468;BME280;41332;42.702;23.200;2023-07-31T07:50:04;93720.97;;;24.01;55.98
55468;BME280;41332;42.702;23.200;2023-07-31T07:52:30;93713.47;;;24.29;55.65
55468;BME280;41332;42.702;23.200;2023-07-31T07:54:55;93718.50;;;24.43;54.61
55468;BME280;41332;42.702;23.200;2023-07-31T07:57:21;93717.94;;;24.52;52.38
55468;BME280;41332;42.702;23.200;2023-07-31T07:59:46;93720.97;;;24.71;54.20
55468;BME280;41332;42.702;23.200;2023-07-31T08:02:11;93730.31;;;24.82;51.99
55468;BME280;41332;42.702;23.200;2023-07-31T08:04:37;93731.81;;;25.00;50.89
55468;BME280;41332;42.702;23.200;2023-07-31T08:07:02;93736.28;;;24.90;50.35
55468;BME280;41332;42.702;23.200;2023-07-31T08:09:28;93721.25;;;25.22;49.24
55468;BME280;41332;42.702;23.200;2023-07-31T08:11:53;93731.28;;;25.38;50.36
55468;BME280;41332;42.702;23.200;2023-07-31T08:14:19;93729.25;;;25.42;50.35
55468;BME280;41332;42.702;23.200;2023-07-31T08:16:45;93725.41;;;25.56;49.43
55468;BME280;41332;42.702;23.200;2023-07-31T08:19:10;93719.31;;;25.69;48.70
55468;BME280;41332;42.702;23.200;2023-07-31T08:21:36;93719.88;;;25.47;48.20
55468;BME280;41332;42.702;23.200;2023-07-31T08:24:01;93710.47;;;25.55;47.88
55468;BME280;41332;42.702;23.200;2023-07-31T08:26:27;93718.47;;;25.84;49.07
55468;BME280;41332;42.702;23.200;2023-07-31T08:28:52;93720.41;;;25.71;48.59
55468;BME280;41332;42.702;23.200;2023-07-31T08:31:19;93712.44;;;25.80;49.61
55468;BME280;41332;42.702;23.200;2023-07-31T08:33:44;93710.41;;;25.84;48.30
55468;BME280;41332;42.702;23.200;2023-07-31T08:36:09;93720.31;;;25.88;46.92
55468;BME280;41332;42.702;23.200;2023-07-31T08:38:35;93726.00;;;25.77;47.84
55468;BME280;41332;42.702;23.200;2023-07-31T08:41:02;93728.16;;;25.69;47.30
55468;BME280;41332;42.702;23.200;2023-07-31T08:43:27;93726.09;;;25.73;47.14
55468;BME280;41332;42.702;23.200;2023-07-31T08:45:53;93728.72;;;26.03;46.83
55468;BME280;41332;42.702;23.200;2023-07-31T08:48:22;93723.41;;;26.28;45.30
55468;BME280;41332;42.702;23.200;2023-07-31T08:50:48;93719.88;;;26.44;46.05
55468;BME280;41332;42.702;23.200;2023-07-31T08:53:13;93714.13;;;26.68;45.84
55468;BME280;41332;42.702;23.200;2023-07-31T08:55:42;93718.75;;;26.93;45.46
55468;BME280;41332;42.702;23.200;2023-07-31T08:58:08;93712.13;;;27.07;45.46
55468;BME280;41332;42.702;23.200;2023-07-31T09:00:33;93706.13;;;27.03;45.88
55468;BME280;41332;42.702;23.200;2023-07-31T09:03:02;93717.31;;;27.02;45.38
55468;BME280;41332;42.702;23.200;2023-07-31T09:05:30;93713.44;;;27.03;44.21
55468;BME280;41332;42.702;23.200;2023-07-31T09:07:56;93719.50;;;26.94;45.07
55468;BME280;41332;42.702;23.200;2023-07-31T09:10:22;93712.31;;;26.91;45.53
55468;BME280;41332;42.702;23.200;2023-07-31T09:12:50;93699.94;;;26.80;45.27
55468;BME280;41332;42.702;23.200;2023-07-31T09:15:16;93711.34;;;26.72;45.15
55468;BME280;41332;42.702;23.200;2023-07-31T09:17:42;93700.13;;;26.86;44.54
55468;BME280;41332;42.702;23.200;2023-07-31T09:20:18;93711.63;;;26.87;44.53
55468;BME280;41332;42.702;23.200;2023-07-31T09:22:44;93695.44;;;27.00;44.57
55468;BME280;41332;42.702;23.200;2023-07-31T09:25:21;93698.03;;;27.03;44.83
55468;BME280;41332;42.702;23.200;2023-07-31T09:27:53;93701.50;;;27.04;45.64
55468;BME280;41332;42.702;23.200;2023-07-31T09:30:20;93686.63;;;26.99;43.90
55468;BME280;41332;42.702;23.200;2023-07-31T09:32:47;93700.63;;;27.29;42.40
55468;BME280;41332;42.702;23.200;2023-07-31T09:35:31;93695.72;;;27.14;42.21
55468;BME280;41332;42.702;23.200;2023-07-31T09:40:32;93685.69;;;27.15;44.25
55468;BME280;41332;42.702;23.200;2023-07-31T09:43:00;93684.47;;;27.29;44.34
55468;BME280;41332;42.702;23.200;2023-07-31T09:45:26;93691.97;;;27.47;43.18
55468;BME280;41332;42.702;23.200;2023-07-31T09:47:51;93693.09;;;27.24;41.96
55468;BME280;41332;42.702;23.200;2023-07-31T09:50:19;93690.47;;;27.33;43.81
55468;BME280;41332;42.702;23.200;2023-07-31T09:52:45;93696.41;;;27.41;42.01
55468;BME280;41332;42.702;23.200;2023-07-31T09:55:10;93686.81;;;27.40;41.97
55468;BME280;41332;42.702;23.200;2023-07-31T09:57:45;93678.47;;;27.47;40.50
55468;BME280;41332;42.702;23.200;2023-07-31T10:00:11;93682.94;;;27.41;41.77
55468;BME280;41332;42.702;23.200;2023-07-31T10:02:38;93688.88;;;27.58;40.14
55468;BME280;41332;42.702;23.200;2023-07-31T10:05:05;93682.97;;;27.50;41.49
55468;BME280;41332;42.702;23.200;2023-07-31T10:07:36;93685.13;;;27.55;41.24
55468;BME280;41332;42.702;23.200;2023-07-31T10:10:04;93680.47;;;27.78;41.13
55468;BME280;41332;42.702;23.200;2023-07-31T10:12:32;93683.47;;;27.80;38.80
55468;BME280;41332;42.702;23.200;2023-07-31T10:14:59;93677.94;;;27.84;40.67
55468;BME280;41332;42.702;23.200;2023-07-31T10:17:25;93679.09;;;27.73;39.18
55468;BME280;41332;42.702;23.200;2023-07-31T10:19:51;93672.25;;;27.82;39.98
55468;BME280;41332;42.702;23.200;2023-07-31T10:22:19;93682.31;;;27.90;40.43
55468;BME280;41332;42.702;23.200;2023-07-31T10:24:45;93680.19;;;28.07;38.99
55468;BME280;41332;42.702;23.200;2023-07-31T10:27:14;93671.25;;;28.20;39.25
55468;BME280;41332;42.702;23.200;2023-07-31T10:29:41;93667.47;;;28.17;39.86
55468;BME280;41332;42.702;23.200;2023-07-31T10:32:09;93667.59;;;28.13;38.62
55468;BME280;41332;42.702;23.200;2023-07-31T10:34:36;93660.09;;;28.08;39.81
55468;BME280;41332;42.702;23.200;2023-07-31T10:39:59;93669.13;;;28.15;38.27
55468;BME280;41332;42.702;23.200;2023-07-31T10:42:37;93666.19;;;28.31;39.14
55468;BME280;41332;42.702;23.200;2023-07-31T10:45:08;93661.69;;;28.28;35.76
55468;BME280;41332;42.702;23.200;2023-07-31T10:47:45;93660.09;;;28.08;37.54
55468;BME280;41332;42.702;23.200;2023-07-31T10:50:18;93658.41;;;28.02;38.22
55468;BME280;41332;42.702;23.200;2023-07-31T10:52:54;93658.03;;;28.12;38.64
55468;BME280;41332;42.702;23.200;2023-07-31T10:55:39;93664.38;;;28.28;37.24
55468;BME280;41332;42.702;23.200;2023-07-31T10:58:10;93657.94;;;28.25;36.06
55468;BME280;41332;42.702;23.200;2023-07-31T11:00:38;93655.69;;;28.02;37.78
55468;BME280;41332;42.702;23.200;2023-07-31T11:03:06;93647.69;;;27.89;38.58
55468;BME280;41332;42.702;23.200;2023-07-31T11:05:45;93652.56;;;28.03;38.05
55468;BME280;41332;42.702;23.200;2023-07-31T11:10:37;93646.84;;;28.01;37.39
55468;BME280;41332;42.702;23.200;2023-07-31T11:13:04;93644.75;;;27.96;37.20
55468;BME280;41332;42.702;23.200;2023-07-31T11:15:30;93640.28;;;27.80;37.73
55468;BME280;41332;42.702;23.200;2023-07-31T11:17:56;93639.16;;;27.59;39.05
55468;BME280;41332;42.702;23.200;2023-07-31T11:20:24;93641.94;;;27.77;40.04
55468;BME280;41332;42.702;23.200;2023-07-31T11:22:49;93637.34;;;27.87;38.00
55468;BME280;41332;42.702;23.200;2023-07-31T11:25:15;93645.28;;;27.82;39.30
55468;BME280;41332;42.702;23.200;2023-07-31T11:27:41;93647.66;;;27.79;39.91
55468;BME280;41332;42.702;23.200;2023-07-31T11:30:09;93644.22;;;27.79;39.47
55468;BME280;41332;42.702;23.200;2023-07-31T11:32:36;93637.38;;;27.65;40.17
55468;BME280;41332;42.702;23.200;2023-07-31T11:35:02;93646.75;;;27.51;38.63
55468;BME280;41332;42.702;23.200;2023-07-31T11:37:42;93646.28;;;27.53;39.89
55468;BME280;41332;42.702;23.200;2023-07-31T11:40:08;93640.09;;;27.65;38.40
55468;BME280;41332;42.702;23.200;2023-07-31T11:42:34;93638.78;;;27.70;38.54
55468;BME280;41332;42.702;23.200;2023-07-31T11:45:09;93644.34;;;27.75;37.46
55468;BME280;41332;42.702;23.200;2023-07-31T11:47:36;93639.50;;;27.70;39.64
55468;BME280;41332;42.702;23.200;2023-07-31T11:50:03;93634.53;;;27.59;39.64
55468;BME280;41332;42.702;23.200;2023-07-31T11:52:35;93637.72;;;27.67;39.82
55468;BME280;41332;42.702;23.200;2023-07-31T11:55:03;93633.00;;;27.58;41.45
55468;BME280;41332;42.702;23.200;2023-07-31T11:57:29;93622.41;;;27.64;42.17
55468;BME280;41332;42.702;23.200;2023-07-31T11:59:55;93623.84;;;27.87;41.40
55468;BME280;41332;42.702;23.200;2023-07-31T12:02:21;93627.75;;;27.86;42.18
55468;BME280;41332;42.702;23.200;2023-07-31T12:04:47;93626.69;;;27.84;42.54
55468;BME280;41332;42.702;23.200;2023-07-31T12:07:13;93621.16;;;27.56;40.60
55468;BME280;41332;42.702;23.200;2023-07-31T12:09:38;93620.22;;;27.50;40.92
55468;BME280;41332;42.702;23.200;2023-07-31T12:12:20;93616.72;;;27.40;40.15
55468;BME280;41332;42.702;23.200;2023-07-31T12:14:46;93614.50;;;27.47;41.17
55468;BME280;41332;42.702;23.200;2023-07-31T12:17:11;93618.03;;;27.57;38.19
55468;BME280;41332;42.702;23.200;2023-07-31T12:19:36;93617.53;;;27.50;39.31
55468;BME280;41332;42.702;23.200;2023-07-31T12:22:14;93614.22;;;27.45;39.62
55468;BME280;41332;42.702;23.200;2023-07-31T12:24:41;93608.88;;;27.55;40.35
55468;BME280;41332;42.702;23.200;2023-07-31T12:27:14;93603.03;;;27.56;39.50
55468;BME280;41332;42.702;23.200;2023-07-31T12:29:41;93610.16;;;27.28;39.25
55468;BME280;41332;42.702;23.200;2023-07-31T12:32:24;93609.38;;;27.40;39.54
55468;BME280;41332;42.702;23.200;2023-07-31T12:34:50;93602.53;;;27.26;38.38
55468;BME280;41332;42.702;23.200;2023-07-31T12:37:16;93609.16;;;27.12;39.35
55468;BME280;41332;42.702;23.200;2023-07-31T12:39:42;93606.91;;;27.11;41.17
55468;BME280;41332;42.702;23.200;2023-07-31T12:42:07;93607.38;;;27.09;41.96
55468;BME280;41332;42.702;23.200;2023-07-31T12:44:33;93601.34;;;27.05;40.29
55468;BME280;41332;42.702;23.200;2023-07-31T12:46:58;93603.09;;;26.99;40.55
55468;BME280;41332;42.702;23.200;2023-07-31T12:49:24;93599.72;;;27.08;40.82
55468;BME280;41332;42.702;23.200;2023-07-31T12:51:49;93596.06;;;27.24;41.15
55468;BME280;41332;42.702;23.200;2023-07-31T12:54:14;93583.09;;;27.31;40.82
55468;BME280;41332;42.702;23.200;2023-07-31T12:56:40;93592.66;;;27.23;40.60
55468;BME280;41332;42.702;23.200;2023-07-31T12:59:05;93584.06;;;27.16;40.95